Airfield :
LOGIN :

Register | Disclaimer

   EN    FR    IT 

 










Legend :    VFR   Marginal VFR   IFR   Intensive IFR   Very Intensive IFR
Visi :
Ceiling :
>= 8 km
>= 3000ft
5 to 8 km
1000 to 3000 ft
1500m to 5 km
500 to 1000 ft
800 to 1500m
200 to 500 ft
< 800m
< 200 ft
Symbols :   Thunderstorms  Fog  Heavy snow  Heavy precipitations  Wind > 20 kt
SIGMETs :     Misc.  Thunderstorms  Icing  Turbulence  Mountain Waves  Volcanic Ashes






- Airport Elevation : 48 ft
- IATA code : PSR


LIBP - Abruzzo Pescara

EXPIRED METARs :
  • 280250Z AUTO 26005KT 9999 NCD 05/04 Q1021
  • 280220Z AUTO 23005KT 9999 NCD 05/04 Q1021
  • 280150Z AUTO 24005KT 9999 SCT062/// 05/04 Q1022
  • 272220Z AUTO 23006KT 9999 NCD 07/06 Q1023

TAF TAF LIBP
Valid from the 28 at 00:00 until the 29 at 00:00 UTC


272300Z 2800/2824 22006KT 9999 BKN070



MET'MAP, your aeronautical weather chart ! - Copyright ORBIFLY December 2007 - Disclaimer

ORBIFLY MET'MAP TEAM :

Programming & Development : Alexandra Zaïnal
Original concept : Baudouin d'Aumeries
Technical & hardware support : Manuel Goepfert
Assistance : Marc-Olivier Méhu




SOURCES & CREDITS :

   NOAA